Time;durP1;ratioP1;P1;durP2;ratioP2;P2;SDS_P1;SDS_P2;PMS_P1;PMS_P2;Temp;Humidity;BMP_temperature;BMP_pressure;BME280_temperature;BME280_humidity;BME280_pressure;Samples;Min_cycle;Max_cycle;Signal;HPM_P1;HPM_P2
2023/07/21 00:02:14;;;;;;;4.40;4.00;;;18.50;99.90;;;;;;4999450;28;20941;-65
2023/07/21 00:04:41;;;;;;;3.53;3.17;;;18.50;99.90;;;;;;5003022;28;20887;-64
2023/07/21 00:07:08;;;;;;;3.47;3.20;;;18.50;99.90;;;;;;5008386;28;20512;-65
2023/07/21 00:09:35;;;;;;;4.20;3.90;;;18.40;99.90;;;;;;5009386;28;20473;-65
2023/07/21 00:12:04;;;;;;;3.60;3.10;;;18.40;99.90;;;;;;5009158;28;20836;-65
2023/07/21 00:14:31;;;;;;;4.07;3.77;;;18.40;99.90;;;;;;5009392;28;20449;-64
2023/07/21 00:16:58;;;;;;;3.70;3.50;;;18.30;99.90;;;;;;5006692;28;20482;-66
2023/07/21 00:19:25;;;;;;;3.57;3.37;;;18.30;99.90;;;;;;5006328;28;20540;-65
2023/07/21 00:21:52;;;;;;;3.97;3.67;;;18.30;99.90;;;;;;5009105;28;20484;-66
2023/07/21 00:24:20;;;;;;;4.50;4.23;;;18.30;99.90;;;;;;5009198;28;20559;-65
2023/07/21 00:26:47;;;;;;;3.50;3.20;;;18.30;99.90;;;;;;5008222;28;21311;-65
2023/07/21 00:29:15;;;;;;;3.87;3.67;;;18.30;99.90;;;;;;5008705;28;20567;-65
2023/07/21 00:31:46;;;;;;;3.40;3.20;;;18.30;99.90;;;;;;5009015;28;20452;-65
2023/07/21 00:34:13;;;;;;;4.10;3.80;;;18.30;99.90;;;;;;5009241;28;20512;-65
2023/07/21 00:36:40;;;;;;;3.07;2.87;;;18.20;99.90;;;;;;5008260;28;20500;-65
2023/07/21 00:39:07;;;;;;;4.63;3.73;;;18.30;99.90;;;;;;5009006;28;20544;-65
2023/07/21 00:41:34;;;;;;;4.33;4.03;;;18.20;99.90;;;;;;5008841;28;20453;-66
2023/07/21 00:44:01;;;;;;;3.40;3.20;;;18.20;99.90;;;;;;5008895;28;20564;-65
2023/07/21 00:46:30;;;;;;;3.10;2.90;;;18.20;99.90;;;;;;5005498;28;20536;-65
2023/07/21 00:48:57;;;;;;;4.23;3.93;;;18.20;99.90;;;;;;5008904;28;20491;-65
2023/07/21 00:51:24;;;;;;;3.83;3.23;;;18.20;99.90;;;;;;5008930;28;20467;-66
2023/07/21 00:53:51;;;;;;;4.53;4.13;;;18.20;99.90;;;;;;5008628;28;21002;-65
2023/07/21 00:56:18;;;;;;;4.50;4.13;;;18.20;99.90;;;;;;5007998;28;20492;-65
2023/07/21 00:58:45;;;;;;;3.30;3.10;;;18.20;99.90;;;;;;5008507;28;20460;-65
2023/07/21 01:01:13;;;;;;;4.23;4.03;;;18.20;99.90;;;;;;5008388;28;20467;-65
2023/07/21 01:03:41;;;;;;;3.47;3.27;;;18.20;99.90;;;;;;5008446;28;20544;-65
2023/07/21 01:06:10;;;;;;;3.30;3.10;;;18.10;99.90;;;;;;5007762;28;20818;-65
2023/07/21 01:08:37;;;;;;;4.40;4.00;;;18.10;99.90;;;;;;5008541;28;20895;-65
2023/07/21 01:11:05;;;;;;;4.03;3.80;;;18.10;99.90;;;;;;5004902;28;21337;-66
2023/07/21 01:13:32;;;;;;;3.67;3.40;;;18.10;99.90;;;;;;5008205;28;20477;-65
2023/07/21 01:16:01;;;;;;;3.83;3.63;;;18.10;99.90;;;;;;5005964;28;20485;-65
2023/07/21 01:18:28;;;;;;;4.30;4.00;;;18.10;99.90;;;;;;5008334;28;20906;-65
2023/07/21 01:20:58;;;;;;;4.10;3.80;;;18.10;99.90;;;;;;5008158;28;20921;-65
2023/07/21 01:23:31;;;;;;;3.73;3.43;;;18.00;99.90;;;;;;5008145;28;20473;-65
2023/07/21 01:26:01;;;;;;;4.00;3.57;;;17.90;99.90;;;;;;5007710;28;20874;-65
2023/07/21 01:28:29;;;;;;;5.17;3.20;;;17.90;99.90;;;;;;5008186;28;20552;-65
2023/07/21 01:30:57;;;;;;;3.80;3.50;;;17.90;99.90;;;;;;5008192;28;20850;-65
2023/07/21 01:33:27;;;;;;;4.70;3.87;;;17.90;99.90;;;;;;5007942;28;20477;-65
2023/07/21 01:35:55;;;;;;;3.63;3.33;;;17.80;99.90;;;;;;5007466;28;20452;-65
2023/07/21 01:38:23;;;;;;;3.43;3.23;;;17.80;99.90;;;;;;5008279;28;20977;-65
2023/07/21 01:40:50;;;;;;;3.67;3.10;;;17.80;99.90;;;;;;5009827;28;20464;-65
2023/07/21 01:43:19;;;;;;;3.40;3.20;;;17.70;99.90;;;;;;5011824;28;20565;-65
2023/07/21 01:45:46;;;;;;;4.07;3.77;;;17.70;99.90;;;;;;5011820;28;20449;-65
2023/07/21 01:48:13;;;;;;;4.50;3.50;;;17.60;99.90;;;;;;5011341;28;20457;-65
2023/07/21 01:50:42;;;;;;;4.23;4.03;;;17.60;99.90;;;;;;5011772;28;20456;-65
2023/07/21 01:53:14;;;;;;;3.03;2.80;;;17.60;99.90;;;;;;5011943;28;20489;-65
2023/07/21 01:55:47;;;;;;;3.30;3.10;;;17.50;99.90;;;;;;5011875;28;20456;-65
2023/07/21 01:58:16;;;;;;;3.83;3.53;;;17.50;99.90;;;;;;5011403;28;20497;-65
2023/07/21 02:00:46;;;;;;;4.10;3.80;;;17.50;99.90;;;;;;5012140;28;20882;-65
2023/07/21 02:03:15;;;;;;;3.80;3.50;;;17.40;99.90;;;;;;5012129;28;20910;-65
2023/07/21 02:05:42;;;;;;;2.87;2.67;;;17.30;99.90;;;;;;5012023;28;20548;-65
2023/07/21 02:08:09;;;;;;;4.13;3.73;;;17.30;99.90;;;;;;5010861;28;20535;-65
2023/07/21 02:10:36;;;;;;;4.23;3.80;;;17.20;99.90;;;;;;5011631;28;20461;-65
2023/07/21 02:13:04;;;;;;;3.50;3.20;;;17.20;99.90;;;;;;5011510;28;20487;-65
2023/07/21 02:15:31;;;;;;;3.40;3.20;;;17.20;99.90;;;;;;5009693;28;20467;-65
2023/07/21 02:17:59;;;;;;;3.53;3.23;;;17.10;99.90;;;;;;5010494;28;20503;-66
2023/07/21 02:20:26;;;;;;;3.40;3.17;;;17.10;99.90;;;;;;5011353;28;20452;-65
2023/07/21 02:22:54;;;;;;;3.80;3.50;;;17.10;99.90;;;;;;5011186;28;20489;-65
2023/07/21 02:25:21;;;;;;;3.33;3.13;;;17.00;99.90;;;;;;5011667;28;20482;-65
2023/07/21 02:27:48;;;;;;;3.80;3.50;;;17.00;99.90;;;;;;5010609;28;20499;-65
2023/07/21 02:30:14;;;;;;;4.10;3.80;;;17.00;99.90;;;;;;5011358;28;20474;-65
2023/07/21 02:32:42;;;;;;;4.00;3.20;;;16.90;99.90;;;;;;5011359;28;20477;-65
2023/07/21 02:35:11;;;;;;;3.40;3.10;;;16.90;99.90;;;;;;5011200;28;20511;-65
2023/07/21 02:37:38;;;;;;;4.00;3.60;;;16.90;99.90;;;;;;5010220;28;20491;-65
2023/07/21 02:40:06;;;;;;;4.10;3.77;;;16.90;99.90;;;;;;5010903;28;20461;-65
2023/07/21 02:42:34;;;;;;;3.40;3.20;;;16.80;99.90;;;;;;5010928;28;20975;-65
2023/07/21 02:45:01;;;;;;;3.83;3.57;;;16.80;99.90;;;;;;5011086;28;20461;-65
2023/07/21 02:47:28;;;;;;;3.57;3.27;;;16.90;99.90;;;;;;5010034;28;20452;-65
2023/07/21 02:49:55;;;;;;;4.00;3.70;;;16.80;99.90;;;;;;5011129;28;20468;-65
2023/07/21 02:52:24;;;;;;;4.27;3.90;;;16.80;99.90;;;;;;5010685;28;20484;-65
2023/07/21 02:54:50;;;;;;;4.43;4.07;;;16.80;99.90;;;;;;5010774;28;20889;-65
2023/07/21 02:57:17;;;;;;;4.60;4.30;;;16.80;99.90;;;;;;5010010;28;20962;-66
2023/07/21 02:59:45;;;;;;;3.97;3.53;;;16.80;99.90;;;;;;5010626;28;20862;-65
2023/07/21 03:02:12;;;;;;;2.70;2.60;;;16.70;99.90;;;;;;5010660;28;20538;-65
2023/07/21 03:04:42;;;;;;;4.37;4.07;;;16.70;99.90;;;;;;5007253;28;20527;-65
2023/07/21 03:07:09;;;;;;;4.30;4.00;;;16.80;99.90;;;;;;5009818;28;20539;-65
2023/07/21 03:09:37;;;;;;;3.17;2.97;;;16.70;99.90;;;;;;5010643;28;20546;-66
2023/07/21 03:12:04;;;;;;;4.03;3.73;;;16.70;99.90;;;;;;5010574;28;20548;-65
2023/07/21 03:14:31;;;;;;;4.00;3.70;;;16.70;99.90;;;;;;5010767;28;20542;-65
2023/07/21 03:16:58;;;;;;;4.77;4.40;;;16.70;99.90;;;;;;5007921;28;20491;-65
2023/07/21 03:19:25;;;;;;;3.90;3.60;;;16.70;99.90;;;;;;5010183;28;20454;-65
2023/07/21 03:21:54;;;;;;;4.10;3.90;;;16.60;99.90;;;;;;5009979;28;20464;-64
2023/07/21 03:24:21;;;;;;;3.97;3.70;;;16.60;99.90;;;;;;5009963;28;20506;-65
2023/07/21 03:26:50;;;;;;;3.73;3.53;;;16.60;99.90;;;;;;5009590;28;20463;-66
2023/07/21 03:29:17;;;;;;;3.50;3.30;;;16.60;99.90;;;;;;5010046;28;20555;-65
2023/07/21 03:31:44;;;;;;;4.40;3.90;;;16.60;99.90;;;;;;5010088;28;20502;-65
2023/07/21 03:34:11;;;;;;;4.37;3.97;;;16.60;99.90;;;;;;5010290;28;20870;-65
2023/07/21 03:36:38;;;;;;;5.43;4.50;;;16.60;99.90;;;;;;5008702;28;20459;-65
2023/07/21 03:39:05;;;;;;;3.97;3.70;;;16.60;99.90;;;;;;5010061;28;20462;-65
2023/07/21 03:41:32;;;;;;;4.53;4.13;;;16.60;99.90;;;;;;5010069;28;20502;-65
2023/07/21 03:44:00;;;;;;;3.87;3.57;;;16.60;99.90;;;;;;5009762;28;20564;-64
2023/07/21 03:46:27;;;;;;;3.80;3.60;;;16.60;99.90;;;;;;5008816;28;20518;-66
2023/07/21 03:48:54;;;;;;;5.40;5.00;;;16.70;99.90;;;;;;5007607;28;20457;-66
2023/07/21 03:51:21;;;;;;;5.20;4.70;;;16.70;99.90;;;;;;5009289;28;20491;-65
2023/07/21 03:53:48;;;;;;;4.53;3.80;;;16.60;99.90;;;;;;5004588;28;20544;-65
2023/07/21 03:56:14;;;;;;;4.53;4.20;;;16.60;99.90;;;;;;4985846;28;20536;-65
2023/07/21 03:58:42;;;;;;;4.47;3.43;;;16.60;99.90;;;;;;5001971;28;20522;-65
2023/07/21 04:01:10;;;;;;;3.27;3.07;;;16.60;99.90;;;;;;5009584;28;21076;-65
2023/07/21 04:03:37;;;;;;;4.73;4.23;;;16.70;99.90;;;;;;5008878;28;20445;-65
2023/07/21 04:06:07;;;;;;;4.30;3.90;;;16.70;99.90;;;;;;5008599;28;20551;-65
2023/07/21 04:08:34;;;;;;;4.17;3.87;;;16.70;99.90;;;;;;5009255;28;20450;-65
2023/07/21 04:11:01;;;;;;;4.30;4.00;;;16.70;99.90;;;;;;5009378;28;20451;-65
2023/07/21 04:13:28;;;;;;;4.20;3.90;;;16.70;99.90;;;;;;5009240;28;20600;-65
2023/07/21 04:15:55;;;;;;;4.50;4.20;;;16.70;99.90;;;;;;5008981;28;20894;-65
2023/07/21 04:18:25;;;;;;;4.23;3.70;;;16.70;99.90;;;;;;5005931;28;20595;-65
2023/07/21 04:20:52;;;;;;;4.50;4.20;;;16.70;99.90;;;;;;5007474;28;20522;-65
2023/07/21 04:23:19;;;;;;;5.17;4.67;;;16.80;99.90;;;;;;5009067;28;20472;-65
2023/07/21 04:25:46;;;;;;;5.13;4.73;;;16.80;99.90;;;;;;5008987;28;20454;-64
2023/07/21 04:28:13;;;;;;;3.77;3.47;;;16.80;99.90;;;;;;5008751;28;20457;-65
2023/07/21 04:30:40;;;;;;;4.10;3.80;;;16.80;99.90;;;;;;5009015;28;21222;-65
2023/07/21 04:33:07;;;;;;;3.80;3.50;;;16.80;99.90;;;;;;5008937;28;20562;-65
2023/07/21 04:35:35;;;;;;;4.20;3.83;;;16.80;99.90;;;;;;5008747;28;20548;-65
2023/07/21 04:38:02;;;;;;;3.47;3.27;;;16.90;99.90;;;;;;5007965;28;20491;-64
2023/07/21 04:40:29;;;;;;;4.83;4.43;;;16.90;99.90;;;;;;5008663;28;20479;-66
2023/07/21 04:42:56;;;;;;;4.53;3.87;;;17.00;99.90;;;;;;5008849;28;20576;-65
2023/07/21 04:45:23;;;;;;;4.03;3.73;;;17.00;99.90;;;;;;5008909;28;20559;-65
2023/07/21 04:47:50;;;;;;;4.10;3.63;;;17.10;99.90;;;;;;5008275;28;20551;-65
2023/07/21 04:50:17;;;;;;;4.10;3.80;;;17.10;99.90;;;;;;5008623;28;20483;-65
2023/07/21 04:52:46;;;;;;;4.30;3.90;;;17.20;99.90;;;;;;5008563;28;20476;-66
2023/07/21 04:55:14;;;;;;;4.43;4.03;;;17.20;99.90;;;;;;5008636;28;20915;-64
2023/07/21 04:57:42;;;;;;;4.33;4.03;;;17.30;99.90;;;;;;5006933;28;20496;-65
2023/07/21 05:00:12;;;;;;;4.40;4.07;;;17.30;99.90;;;;;;5007922;28;20455;-65
2023/07/21 05:02:39;;;;;;;4.77;4.37;;;17.30;99.90;;;;;;5008416;28;20500;-65
2023/07/21 05:05:06;;;;;;;4.10;3.80;;;17.40;99.90;;;;;;5008281;28;20460;-65
2023/07/21 05:07:33;;;;;;;4.60;4.20;;;17.50;99.90;;;;;;5006622;28;20449;-65
2023/07/21 05:10:01;;;;;;;5.00;4.50;;;17.50;99.90;;;;;;5008086;28;20461;-65
2023/07/21 05:12:28;;;;;;;4.80;4.50;;;17.50;99.90;;;;;;5008542;28;20568;-65
2023/07/21 05:14:57;;;;;;;4.57;4.17;;;17.50;99.90;;;;;;5007503;28;20464;-65
2023/07/21 05:17:24;;;;;;;4.87;4.33;;;17.60;99.90;;;;;;5007270;28;20458;-65
2023/07/21 05:19:51;;;;;;;3.43;3.13;;;17.50;99.90;;;;;;5008107;28;20967;-65
2023/07/21 05:22:18;;;;;;;4.77;4.37;;;17.60;99.90;;;;;;5008079;28;20499;-65
2023/07/21 05:24:45;;;;;;;4.60;4.23;;;17.70;99.90;;;;;;5008441;28;20546;-66
2023/07/21 05:27:13;;;;;;;4.20;3.90;;;17.70;99.90;;;;;;5007645;28;20459;-65
2023/07/21 05:29:40;;;;;;;4.40;4.10;;;17.60;99.90;;;;;;5008218;28;20457;-65
2023/07/21 05:32:08;;;;;;;4.07;3.77;;;17.60;99.90;;;;;;5007952;28;20568;-65
2023/07/21 05:34:35;;;;;;;5.23;4.83;;;17.60;99.90;;;;;;5008245;28;20467;-65
2023/07/21 05:37:02;;;;;;;4.80;4.40;;;17.70;99.90;;;;;;5007920;28;20463;-66
2023/07/21 05:39:29;;;;;;;3.67;3.47;;;17.70;99.90;;;;;;5007943;28;20547;-65
2023/07/21 05:41:57;;;;;;;3.90;3.53;;;17.80;99.90;;;;;;5007995;28;20995;-65
2023/07/21 05:44:26;;;;;;;4.30;3.90;;;17.80;99.90;;;;;;5008084;28;20993;-65
2023/07/21 05:46:54;;;;;;;4.00;3.80;;;17.90;99.90;;;;;;5006826;28;20463;-65
2023/07/21 05:49:21;;;;;;;5.00;4.60;;;17.90;99.90;;;;;;5008058;28;20492;-65
2023/07/21 05:51:50;;;;;;;4.43;4.07;;;18.00;99.90;;;;;;5007878;28;20542;-65
2023/07/21 05:54:17;;;;;;;3.87;3.63;;;18.00;99.90;;;;;;5008148;28;21036;-65
2023/07/21 05:56:44;;;;;;;4.50;4.10;;;18.10;99.90;;;;;;5007153;28;20463;-65
2023/07/21 05:59:11;;;;;;;4.03;3.73;;;18.20;99.90;;;;;;5008194;28;20588;-65
2023/07/21 06:01:39;;;;;;;5.00;4.13;;;18.30;99.90;;;;;;5007877;28;20476;-65
2023/07/21 06:04:07;;;;;;;3.40;3.20;;;18.40;99.90;;;;;;5007928;28;20993;-65
2023/07/21 06:06:34;;;;;;;4.30;4.00;;;18.40;99.90;;;;;;5006958;28;20967;-65
2023/07/21 06:09:01;;;;;;;3.33;3.13;;;18.50;99.90;;;;;;5007857;28;20456;-64
2023/07/21 06:11:28;;;;;;;3.90;3.60;;;18.50;99.90;;;;;;5007627;28;20838;-65
2023/07/21 06:13:55;;;;;;;3.80;3.60;;;18.50;99.90;;;;;;5007413;28;20484;-65
2023/07/21 06:16:23;;;;;;;5.20;4.40;;;18.50;99.90;;;;;;5006955;28;20830;-66
2023/07/21 06:18:52;;;;;;;4.47;4.07;;;18.50;99.90;;;;;;5007542;28;20500;-65
2023/07/21 06:21:20;;;;;;;4.60;4.17;;;18.50;99.90;;;;;;5007527;28;20461;-65
2023/07/21 06:23:48;;;;;;;3.97;3.60;;;18.50;99.90;;;;;;5007340;28;20472;-65
2023/07/21 06:26:16;;;;;;;3.83;3.63;;;18.60;99.90;;;;;;5007595;28;20547;-65
2023/07/21 06:28:42;;;;;;;4.10;3.70;;;18.60;99.90;;;;;;5011205;28;20536;-66
2023/07/21 06:31:11;;;;;;;4.30;4.00;;;18.50;99.90;;;;;;5011390;28;20464;-66
2023/07/21 06:33:38;;;;;;;5.10;4.60;;;18.50;99.90;;;;;;5011160;28;21017;-65
2023/07/21 06:36:06;;;;;;;4.17;3.90;;;18.50;99.90;;;;;;5010341;28;20950;-65
2023/07/21 06:38:33;;;;;;;2.60;2.50;;;18.60;99.90;;;;;;5011014;28;20532;-65
2023/07/21 06:41:00;;;;;;;4.90;3.50;;;18.70;99.90;;;;;;5011021;28;20466;-66
2023/07/21 06:43:27;;;;;;;4.23;3.87;;;18.70;99.90;;;;;;5010883;28;20474;-64
2023/07/21 06:45:54;;;;;;;4.00;3.70;;;18.70;99.90;;;;;;5010712;28;20465;-64
2023/07/21 06:48:21;;;;;;;3.90;3.60;;;18.70;99.90;;;;;;5010649;28;20467;-65
2023/07/21 06:50:49;;;;;;;3.67;3.43;;;18.80;99.90;;;;;;5011079;28;20893;-64
2023/07/21 06:53:18;;;;;;;3.20;2.90;;;18.80;99.90;;;;;;5010768;28;20481;-65
2023/07/21 06:55:46;;;;;;;4.20;3.90;;;18.90;99.90;;;;;;5010569;28;20450;-64
2023/07/21 06:58:13;;;;;;;3.97;3.67;;;18.90;99.90;;;;;;5009890;28;20492;-65
2023/07/21 07:00:40;;;;;;;4.20;3.80;;;19.00;99.90;;;;;;4991998;28;20846;-65
2023/07/21 07:03:07;;;;;;;3.30;3.10;;;19.00;99.90;;;;;;4990489;28;20482;-65
2023/07/21 07:05:34;;;;;;;3.20;3.00;;;19.10;99.90;;;;;;4990645;28;20534;-66
2023/07/21 07:08:01;;;;;;;5.53;5.00;;;19.20;99.90;;;;;;4990380;28;21109;-65
2023/07/21 07:10:29;;;;;;;3.63;3.43;;;19.20;99.90;;;;;;4991092;28;20457;-65
2023/07/21 07:12:56;;;;;;;5.93;5.10;;;19.30;99.90;;;;;;4991050;28;20471;-65
2023/07/21 07:15:23;;;;;;;4.33;3.90;;;19.40;99.90;;;;;;5004579;28;20455;-65
2023/07/21 07:17:50;;;;;;;4.50;4.20;;;19.50;99.90;;;;;;5008657;28;20457;-65
2023/07/21 07:20:17;;;;;;;3.90;3.70;;;19.50;99.90;;;;;;5009814;28;20458;-66
2023/07/21 07:22:44;;;;;;;4.43;4.07;;;19.60;99.90;;;;;;5009718;28;20573;-66
2023/07/21 07:25:11;;;;;;;6.20;5.00;;;19.70;99.90;;;;;;5010001;28;20462;-66
2023/07/21 07:27:39;;;;;;;4.00;3.70;;;19.70;99.90;;;;;;5009335;28;20548;-65
2023/07/21 07:30:07;;;;;;;3.83;3.57;;;19.80;99.90;;;;;;5010247;28;20537;-66
2023/07/21 07:32:34;;;;;;;5.60;3.70;;;19.80;99.90;;;;;;5010044;28;20665;-66
2023/07/21 07:35:01;;;;;;;4.23;3.80;;;20.00;99.90;;;;;;5009693;28;20545;-66
2023/07/21 07:37:28;;;;;;;4.53;4.23;;;20.10;99.90;;;;;;5008629;28;20482;-65
2023/07/21 07:39:55;;;;;;;3.33;3.13;;;20.40;99.90;;;;;;5009555;28;20489;-66
2023/07/21 07:42:23;;;;;;;3.47;3.27;;;20.70;99.90;;;;;;5009808;28;20479;-66
2023/07/21 07:44:55;;;;;;;5.23;4.20;;;20.90;99.90;;;;;;5010135;28;21085;-66
2023/07/21 07:47:22;;;;;;;4.20;3.23;;;21.00;99.10;;;;;;5009084;28;20552;-66
2023/07/21 07:49:49;;;;;;;3.80;3.60;;;21.10;98.20;;;;;;5009671;28;20452;-66
2023/07/21 07:52:17;;;;;;;3.53;3.33;;;21.30;98.30;;;;;;5009736;28;20477;-66
2023/07/21 07:54:44;;;;;;;3.53;3.30;;;21.40;98.40;;;;;;5009540;28;20559;-66
2023/07/21 07:57:11;;;;;;;4.50;4.10;;;21.40;98.60;;;;;;5009135;28;20460;-66
2023/07/21 07:59:38;;;;;;;3.40;3.20;;;21.50;96.80;;;;;;5009897;28;20607;-65
2023/07/21 08:02:07;;;;;;;4.27;3.97;;;21.50;96.60;;;;;;5008738;28;20544;-66
2023/07/21 08:04:34;;;;;;;3.60;3.30;;;21.60;97.60;;;;;;5009143;28;20568;-66
2023/07/21 08:07:01;;;;;;;4.13;3.83;;;21.70;96.30;;;;;;5009081;28;20881;-66
2023/07/21 08:09:27;;;;;;;4.17;3.87;;;21.70;95.80;;;;;;5009577;28;20454;-66
2023/07/21 08:11:54;;;;;;;3.63;3.43;;;21.70;96.20;;;;;;5009316;28;20536;-66
2023/07/21 08:14:21;;;;;;;4.30;3.90;;;21.80;96.70;;;;;;5009305;28;20539;-67
2023/07/21 08:16:48;;;;;;;3.20;3.00;;;21.90;96.10;;;;;;5008438;28;20459;-67
2023/07/21 08:19:18;;;;;;;3.53;3.23;;;21.90;96.20;;;;;;5008849;28;20663;-66
2023/07/21 08:21:47;;;;;;;4.00;3.70;;;22.00;96.40;;;;;;5008823;28;20477;-66
2023/07/21 08:24:15;;;;;;;3.90;3.70;;;22.00;96.00;;;;;;5009001;28;20465;-66
2023/07/21 08:26:42;;;;;;;3.13;2.93;;;22.00;96.00;;;;;;5008173;28;20459;-66
2023/07/21 08:29:09;;;;;;;2.87;2.70;;;22.00;95.60;;;;;;5007857;28;20458;-66
2023/07/21 08:31:36;;;;;;;4.00;3.70;;;22.00;96.20;;;;;;5009127;28;20454;-66
2023/07/21 08:34:03;;;;;;;3.53;3.23;;;22.00;94.10;;;;;;5008744;28;20481;-66
2023/07/21 08:36:31;;;;;;;3.57;3.30;;;22.00;95.10;;;;;;5008194;28;20595;-66
2023/07/21 08:38:58;;;;;;;3.17;2.97;;;21.90;96.30;;;;;;5008530;28;20579;-67
2023/07/21 08:41:26;;;;;;;3.57;3.37;;;21.80;95.80;;;;;;5008703;28;20458;-65
2023/07/21 08:43:54;;;;;;;3.63;3.43;;;21.70;95.50;;;;;;5008537;28;20585;-66
2023/07/21 08:46:22;;;;;;;4.17;3.80;;;21.70;96.00;;;;;;5007836;28;20539;-66
2023/07/21 08:48:50;;;;;;;3.67;3.47;;;21.70;96.40;;;;;;5008129;28;20514;-66
2023/07/21 08:51:17;;;;;;;4.30;4.10;;;21.60;96.50;;;;;;5008791;28;20471;-64
2023/07/21 08:53:45;;;;;;;3.20;3.00;;;21.60;97.00;;;;;;5008611;28;20478;-66
2023/07/21 08:56:12;;;;;;;3.70;3.40;;;21.60;97.00;;;;;;5008075;28;20903;-66
2023/07/21 08:58:39;;;;;;;4.20;3.90;;;21.60;96.30;;;;;;5008728;28;21144;-66
2023/07/21 09:01:08;;;;;;;3.57;3.37;;;21.60;95.50;;;;;;5008605;28;20515;-66
2023/07/21 09:03:35;;;;;;;4.00;3.70;;;21.60;95.60;;;;;;5008373;28;20485;-66
2023/07/21 09:06:02;;;;;;;3.67;3.40;;;21.60;95.80;;;;;;5008080;28;20460;-66
2023/07/21 09:08:31;;;;;;;3.70;3.50;;;21.50;96.00;;;;;;5008676;28;20502;-66
2023/07/21 09:11:00;;;;;;;9.57;9.00;;;21.60;95.90;;;;;;5008438;28;20544;-65
2023/07/21 09:13:28;;;;;;;4.17;3.90;;;21.60;95.80;;;;;;5008245;28;20477;-66
2023/07/21 09:15:56;;;;;;;3.90;3.60;;;21.60;95.90;;;;;;5004018;28;20463;-65
2023/07/21 09:18:26;;;;;;;3.70;3.40;;;21.50;95.00;;;;;;5006287;28;20488;-65
2023/07/21 09:20:53;;;;;;;3.93;3.63;;;21.50;95.30;;;;;;5006581;28;20472;-65
2023/07/21 09:23:20;;;;;;;4.77;3.37;;;21.50;96.30;;;;;;5006908;28;20487;-65
2023/07/21 09:25:54;;;;;;;3.40;3.10;;;21.60;96.10;;;;;;5007382;28;20984;-66
2023/07/21 09:28:37;;;;;;;4.03;3.83;;;21.60;95.50;;;;;;5007381;28;20474;-65
2023/07/21 09:31:04;;;;;;;4.00;2.97;;;21.60;95.80;;;;;;5007629;28;20794;-66
2023/07/21 09:33:32;;;;;;;4.40;3.60;;;21.60;95.60;;;;;;5005910;28;20566;-65
2023/07/21 09:36:06;;;;;;;3.50;3.30;;;21.60;96.30;;;;;;5006859;28;20453;-65
2023/07/21 09:38:35;;;;;;;3.83;3.23;;;21.70;95.90;;;;;;5006466;28;20502;-65
2023/07/21 09:41:03;;;;;;;3.40;3.20;;;21.80;95.90;;;;;;5007050;28;20463;-65
2023/07/21 09:43:32;;;;;;;3.10;2.90;;;21.90;95.30;;;;;;4992859;28;20572;-65
2023/07/21 09:46:02;;;;;;;4.93;3.23;;;21.90;96.10;;;;;;4985681;28;20472;-65
2023/07/21 09:48:30;;;;;;;3.37;3.07;;;22.00;95.60;;;;;;5006435;28;20532;-66
2023/07/21 09:51:04;;;;;;;3.37;3.17;;;22.20;95.90;;;;;;5007007;28;20548;-65
2023/07/21 09:53:35;;;;;;;3.33;3.13;;;22.20;95.10;;;;;;5006792;28;20476;-65
2023/07/21 09:56:04;;;;;;;3.80;3.17;;;22.30;94.70;;;;;;5005615;28;20458;-66
2023/07/21 09:58:35;;;;;;;3.67;3.47;;;22.30;94.10;;;;;;5006954;28;20456;-64
2023/07/21 10:01:05;;;;;;;3.10;3.00;;;22.30;94.60;;;;;;5009903;28;80584;-65
2023/07/21 10:03:32;;;;;;;3.63;3.33;;;22.40;95.20;;;;;;5008416;28;21055;-64
2023/07/21 10:06:00;;;;;;;3.90;3.60;;;22.50;93.90;;;;;;5001736;28;20458;-64
2023/07/21 10:08:28;;;;;;;3.80;3.20;;;22.50;94.50;;;;;;5009751;28;20456;-65
2023/07/21 10:10:57;;;;;;;3.80;3.60;;;22.60;94.90;;;;;;5010735;28;20453;-65
2023/07/21 10:13:27;;;;;;;3.10;2.90;;;22.70;95.00;;;;;;5010440;28;20476;-66
2023/07/21 10:16:00;;;;;;;4.00;3.43;;;22.90;94.30;;;;;;5010143;28;20981;-66
2023/07/21 10:18:27;;;;;;;3.47;2.93;;;23.10;93.60;;;;;;5010253;28;20460;-65
2023/07/21 10:20:56;;;;;;;3.97;3.47;;;23.20;93.40;;;;;;4977121;28;20486;-64
2023/07/21 10:23:26;;;;;;;3.73;3.53;;;23.30;93.60;;;;;;4987154;28;20557;-65
2023/07/21 10:26:00;;;;;;;3.37;3.17;;;23.50;93.40;;;;;;5001214;28;21060;-64
2023/07/21 10:28:34;;;;;;;3.70;3.40;;;23.60;92.90;;;;;;4977618;28;20485;-65
2023/07/21 10:31:38;;;;;;;4.00;3.70;;;23.60;92.30;;;;;;4986794;28;20451;-66
2023/07/21 10:34:09;;;;;;;6.30;3.93;;;23.60;91.70;;;;;;4980484;28;20463;-65
2023/07/21 10:36:44;;;;;;;4.17;3.87;;;23.60;91.90;;;;;;4979602;28;20503;-65
2023/07/21 10:39:14;;;;;;;3.83;3.53;;;23.60;92.00;;;;;;4973981;28;20496;-66
2023/07/21 10:41:41;;;;;;;4.07;3.30;;;23.60;91.00;;;;;;4982769;28;20483;-66
2023/07/21 10:44:10;;;;;;;3.00;2.80;;;23.70;91.20;;;;;;4980843;28;20466;-64
2023/07/21 10:46:39;;;;;;;3.57;3.27;;;23.80;91.30;;;;;;4974414;28;20452;-65
2023/07/21 10:49:06;;;;;;;3.53;3.33;;;23.90;89.90;;;;;;4985952;28;20547;-65
2023/07/21 10:51:33;;;;;;;3.37;3.17;;;24.10;90.90;;;;;;4976441;28;20458;-65
2023/07/21 10:54:00;;;;;;;3.43;3.23;;;24.30;90.10;;;;;;4980278;28;20989;-65
2023/07/21 10:56:27;;;;;;;3.73;3.47;;;24.40;88.20;;;;;;4982915;28;20451;-65
2023/07/21 10:58:54;;;;;;;3.50;3.20;;;24.50;88.40;;;;;;4988921;28;20455;-65
2023/07/21 11:01:21;;;;;;;5.03;3.40;;;24.50;86.40;;;;;;4974250;28;20518;-65
2023/07/21 11:03:50;;;;;;;2.90;2.80;;;24.60;87.30;;;;;;4982424;28;20914;-64
2023/07/21 11:06:17;;;;;;;3.63;3.33;;;24.60;87.70;;;;;;4981564;28;20452;-65
2023/07/21 11:08:44;;;;;;;3.10;2.90;;;24.80;86.50;;;;;;4989737;28;20536;-65
2023/07/21 11:11:11;;;;;;;4.60;3.30;;;24.80;84.60;;;;;;4973811;28;20459;-65
2023/07/21 11:13:39;;;;;;;3.37;3.17;;;24.80;86.30;;;;;;4981880;28;20479;-65
2023/07/21 11:16:06;;;;;;;3.67;3.47;;;24.80;88.00;;;;;;4979733;28;20445;-65
2023/07/21 11:18:33;;;;;;;3.60;3.40;;;24.70;83.80;;;;;;4989845;28;20462;-65
2023/07/21 11:21:01;;;;;;;4.27;3.00;;;24.70;83.30;;;;;;4973173;28;21220;-65
2023/07/21 11:23:28;;;;;;;3.97;3.60;;;24.70;85.50;;;;;;4984528;28;20851;-65
2023/07/21 11:26:04;;;;;;;3.87;3.57;;;24.80;84.60;;;;;;4978933;28;20460;-64
2023/07/21 11:28:31;;;;;;;4.33;3.10;;;24.70;84.10;;;;;;4976234;28;20508;-64
2023/07/21 11:31:00;;;;;;;5.00;3.47;;;24.60;81.70;;;;;;4986328;28;20522;-65
2023/07/21 11:33:40;;;;;;;3.20;3.00;;;24.60;84.50;;;;;;4975189;28;20491;-65
2023/07/21 11:36:21;;;;;;;3.77;3.47;;;24.60;81.20;;;;;;4978397;28;20449;-65
2023/07/21 11:38:59;;;;;;;3.53;3.20;;;24.70;83.40;;;;;;4985217;28;20467;-64
2023/07/21 11:41:47;;;;;;;3.27;3.07;;;24.80;84.10;;;;;;4974825;28;20495;-65
2023/07/21 11:44:23;;;;;;;3.50;3.30;;;25.00;83.90;;;;;;4978467;28;20456;-66
2023/07/21 11:46:59;;;;;;;4.23;3.90;;;25.20;83.00;;;;;;4985270;28;20887;-65
2023/07/21 11:49:28;;;;;;;3.77;3.53;;;25.30;82.00;;;;;;4974588;28;20553;-65
2023/07/21 11:52:00;;;;;;;3.50;3.30;;;25.40;84.10;;;;;;4980953;28;20571;-65
2023/07/21 11:54:28;;;;;;;3.10;2.90;;;25.40;82.30;;;;;;4983220;28;20721;-65
2023/07/21 11:56:56;;;;;;;4.23;3.93;;;25.40;79.40;;;;;;4972427;28;21143;-65
2023/07/21 11:59:24;;;;;;;3.83;3.43;;;25.40;80.80;;;;;;4984048;28;20452;-65
2023/07/21 12:01:52;;;;;;;3.80;2.97;;;25.40;81.80;;;;;;4977708;28;20460;-64
2023/07/21 12:04:21;;;;;;;3.20;2.90;;;25.40;82.40;;;;;;4977252;28;20540;-66
2023/07/21 12:06:48;;;;;;;3.53;3.23;;;25.40;82.30;;;;;;4984717;28;20483;-65
2023/07/21 12:09:17;;;;;;;3.70;3.50;;;25.40;84.80;;;;;;4972347;28;20452;-64
2023/07/21 12:11:44;;;;;;;3.53;3.33;;;25.30;80.50;;;;;;4992118;28;20531;-65
2023/07/21 12:14:11;;;;;;;4.33;3.93;;;25.10;77.40;;;;;;4976981;28;20483;-65
2023/07/21 12:16:39;;;;;;;4.00;3.60;;;25.10;78.50;;;;;;4983481;28;21289;-65
2023/07/21 12:19:07;;;;;;;5.00;3.70;;;25.10;80.10;;;;;;4986035;28;20524;-65
2023/07/21 12:21:35;;;;;;;3.47;3.27;;;25.00;79.10;;;;;;4974924;28;20570;-64
2023/07/21 12:24:02;;;;;;;4.07;3.87;;;25.00;77.60;;;;;;4988154;28;20995;-65
2023/07/21 12:26:31;;;;;;;4.10;3.80;;;24.90;77.70;;;;;;4974654;28;20557;-65
2023/07/21 12:28:57;;;;;;;3.93;3.63;;;24.80;76.40;;;;;;4986292;28;20535;-65
2023/07/21 12:31:25;;;;;;;3.43;3.23;;;24.70;76.80;;;;;;4983971;28;20828;-65
2023/07/21 12:33:52;;;;;;;4.43;4.13;;;24.50;77.40;;;;;;4977736;28;20479;-64
2023/07/21 12:36:20;;;;;;;4.03;3.73;;;24.30;78.60;;;;;;4988011;28;20546;-65
2023/07/21 12:38:47;;;;;;;3.60;3.40;;;24.20;79.00;;;;;;4972893;28;20539;-65
2023/07/21 12:41:14;;;;;;;3.70;3.50;;;24.10;80.00;;;;;;4988161;28;20486;-65
2023/07/21 12:43:43;;;;;;;4.50;4.20;;;24.00;81.60;;;;;;4981690;28;20905;-65
2023/07/21 12:46:12;;;;;;;4.20;3.90;;;23.90;79.10;;;;;;4979143;28;20542;-65
2023/07/21 12:48:39;;;;;;;4.60;4.30;;;23.90;78.60;;;;;;4988420;28;20990;-65
2023/07/21 12:51:06;;;;;;;4.20;3.90;;;23.90;80.20;;;;;;4972135;28;20897;-65
2023/07/21 12:53:33;;;;;;;5.17;4.67;;;23.90;78.90;;;;;;4987424;28;21050;-65